Flight Track Log - Related Links

Times and Time Zones

All times are in EDT time to prevent confusion due to time zone crossing. See the EJA727 flight status page for this flight to view local times or setup timezone preferences in your user account.


Time Position Orientation Groundspeed Altitude Reporting Facility
EDT Latitude Longitude Course Direction KTS MPH feet Rate Location/Type
Sun 09:48:54 AM 36.1000 -86.6833 180° South 162 186 1,300  Level Nashville TRACON
Sun 09:49:36 AM 36.0667 -86.6833 180° South 199 229 3,000 3,273 Climbing Nashville TRACON
Sun 09:50:55 AM 35.9747 -86.6814 179° South 250 288 7,900 3,885 Climbing Memphis Center
Sun 09:51:55 AM 35.8986 -86.6464 160° South 279 321 12,000 3,500 Climbing Memphis Center
Sun 09:52:55 AM 35.8256 -86.5731 141° Southeast 318 366 14,900 2,500 Climbing Memphis Center
Sun 09:53:55 AM 35.7503 -86.4972 141° Southeast 363 418 17,000 2,450 Climbing Memphis Center
Sun 09:54:55 AM 35.6444 -86.4458 158° South 399 459 19,800 2,542 Climbing Memphis Center
Sun 09:57:18 AM 35.3706 -86.3844 170° South 427 491 25,600 2,305 Climbing Atlanta Center
Sun 09:58:18 AM 35.2525 -86.3278 159° South 437 503 27,600 1,700 Climbing Atlanta Center
Sun 09:59:18 AM 35.1267 -86.2558 155° Southeast 448 516 29,000 850 Climbing Atlanta Center
Sun 10:00:18 AM 35.0006 -86.1889 156° South 470 541 29,300 900 Climbing Atlanta Center
Sun 10:01:18 AM 34.8722 -86.1225 157° South 491 565 30,800 1,500 Climbing Atlanta Center
Sun 10:02:18 AM 34.7461 -86.0586 157° South 491 565 32,300 1,500 Climbing Atlanta Center
Sun 10:03:18 AM 34.6239 -85.9950 157° South 491 565 33,800 1,250 Climbing Atlanta Center
Sun 10:04:18 AM 34.4997 -85.9317 157° South 486 559 34,800 600 Climbing Atlanta Center
Sun 10:05:18 AM 34.3756 -85.8686 157° South 486 559 35,000 100 Climbing Atlanta Center
Sun 10:06:18 AM 34.2594 -85.8108 158° South 479 551 35,000  Level Atlanta Center
Sun 10:07:18 AM 34.1433 -85.7556 158° South 453 521 35,000  Level Atlanta Center
Sun 10:08:18 AM 34.0294 -85.6981 157° South 447 514 35,000  Level Atlanta Center
Sun 10:09:18 AM 33.9236 -85.6436 157° South 454 522 35,000  Level Atlanta Center
Sun 10:10:18 AM 33.8075 -85.5864 158° South 449 517 35,000  Level Atlanta Center
Sun 10:11:18 AM 33.6892 -85.5269 157° South 454 522 35,000  Level Atlanta Center
Sun 10:12:18 AM 33.5731 -85.4700 158° South 454 522 35,000  Level Atlanta Center
Sun 10:13:18 AM 33.4528 -85.4108 158° South 454 522 35,000  Level Atlanta Center
Sun 10:14:18 AM 33.3364 -85.3517 157° South 449 517 35,000  Level Atlanta Center
Sun 10:15:18 AM 33.2200 -85.2953 158° South 449 517 35,000  Level Atlanta Center
Sun 10:16:18 AM 33.1039 -85.2367 157° South 449 517 35,000  Level Atlanta Center
Sun 10:17:18 AM 32.9833 -85.1878 161° South 449 517 35,000  Level Atlanta Center
Sun 10:18:18 AM 32.8625 -85.1517 166° South 444 511 35,000  Level Atlanta Center
Sun 10:19:18 AM 32.7314 -85.0981 161° South 444 511 35,000  Level Atlanta Center
Sun 10:20:18 AM 32.6067 -85.0547 164° South 450 518 35,000  Level Atlanta Center
Sun 10:22:12 AM 32.3936 -84.9814 164° South 454 522 35,000  Level Jacksonville Center
Sun 10:23:12 AM 32.2731 -84.9417 164° South 454 522 35,000  Level Jacksonville Center
Sun 10:24:12 AM 32.1528 -84.9022 164° South 454 522 35,000  Level Jacksonville Center
Sun 10:25:12 AM 32.0239 -84.8603 165° South 454 522 35,000  Level Jacksonville Center
Sun 10:26:12 AM 31.9200 -84.8261 164° South 447 514 35,000  Level Jacksonville Center
Sun 10:27:12 AM 31.7994 -84.7869 165° South 447 514 35,000  Level Jacksonville Center
Sun 10:28:12 AM 31.6811 -84.7481 164° South 447 514 35,000  Level Jacksonville Center
Sun 10:29:12 AM 31.5628 -84.7092 164° South 447 514 35,000  Level Jacksonville Center
Sun 10:30:12 AM 31.4464 -84.6678 163° South 442 509 35,000  Level Jacksonville Center
Sun 10:31:12 AM 31.3278 -84.6292 164° South 442 509 35,000  Level Jacksonville Center
Sun 10:32:12 AM 31.2072 -84.5906 165° South 442 509 35,000  Level Jacksonville Center
Sun 10:33:12 AM 31.0908 -84.5519 164° South 437 503 35,000  Level Jacksonville Center
Sun 10:34:12 AM 30.9725 -84.5111 164° South 437 503 35,000  Level Jacksonville Center
Sun 10:35:12 AM 30.8558 -84.4728 164° South 437 503 35,000  Level Jacksonville Center
Sun 10:36:12 AM 30.7375 -84.4344 164° South 432 497 35,000  Level Jacksonville Center
Sun 10:37:12 AM 30.6189 -84.3942 164° South 432 497 35,000  Level Jacksonville Center
Sun 10:38:12 AM 30.5175 -84.3128 145° Southeast 432 497 35,000  Level Jacksonville Center
Sun 10:39:12 AM 30.4353 -84.2008 130° Southeast 437 503 35,000  Level Jacksonville Center
Sun 10:40:12 AM 30.3569 -84.0939 130° Southeast 437 503 35,000  Level Jacksonville Center
Sun 10:41:12 AM 30.2744 -83.9797 130° Southeast 444 511 35,000  Level Jacksonville Center
Sun 10:42:12 AM 30.1939 -83.8683 130° Southeast 456 525 35,000  Level Jacksonville Center
Sun 10:43:12 AM 30.1133 -83.7569 130° Southeast 456 525 35,000 -50 Level Jacksonville Center
Sun 10:44:12 AM 30.0325 -83.6458 130° Southeast 456 525 34,900  Descending Jacksonville Center
Sun 10:45:12 AM 29.9350 -83.5614 143° Southeast 442 509 35,000 650 Climbing Jacksonville Center
Sun 10:46:12 AM 29.8142 -83.4814 150° Southeast 449 517 36,200 1,450 Climbing Jacksonville Center
Sun 10:47:12 AM 29.7058 -83.4139 152° Southeast 449 517 37,900 1,350 Climbing Jacksonville Center
Sun 10:48:12 AM 29.5997 -83.3392 149° Southeast 449 517 38,900 550 Climbing Jacksonville Center
Sun 10:49:12 AM 29.4894 -83.2672 150° Southeast 449 517 39,000 50 Climbing Jacksonville Center
Sun 10:50:12 AM 29.3872 -83.1978 149° Southeast 437 503 39,000  Level Jacksonville Center
Sun 10:51:12 AM 29.2872 -83.1283 149° Southeast 431 496 39,000  Level Jacksonville Center
Sun 10:52:12 AM 29.1869 -83.0639 151° Southeast 426 490 39,000  Level Jacksonville Center
Sun 10:53:12 AM 29.0850 -82.9947 149° Southeast 426 490 39,000  Level Jacksonville Center
Sun 10:54:12 AM 28.9783 -82.9258 151° Southeast 426 490 39,000  Level Jacksonville Center
Sun 10:55:12 AM 28.8719 -82.8569 150° Southeast 431 496 39,000 -600 Level Jacksonville Center
Sun 10:56:12 AM 28.7633 -82.7836 149° Southeast 444 511 37,800 -1,200 Descending Jacksonville Center
Sun 10:57:12 AM 28.6631 -82.7175 150° Southeast 449 517 36,600 -1,200 Descending Jacksonville Center
Sun 10:58:12 AM 28.5503 -82.6467 151° Southeast 455 524 35,400 -459 Descending Jacksonville Center
Sun 11:00:41 AM 28.2767 -82.4689 150° Southeast 467 537 35,000 -115 Descending Miami Center
Sun 11:01:41 AM 28.1689 -82.3953 149° Southeast 459 528 35,000  Level Miami Center
Sun 11:02:41 AM 28.0547 -82.3261 152° Southeast 459 528 35,000 -250 Level Miami Center
Sun 11:03:41 AM 27.9375 -82.2783 160° South 452 520 34,500 -850 Descending Miami Center
Sun 11:04:41 AM 27.8142 -82.2350 163° South 457 526 33,300 -1,350 Descending Miami Center
Sun 11:05:41 AM 27.6883 -82.1892 162° South 469 540 31,800 -1,550 Descending Miami Center
Sun 11:06:41 AM 27.5586 -82.1456 163° South 476 548 30,200 -1,700 Descending Miami Center
Sun 11:07:41 AM 27.4206 -82.0994 163° South 476 548 28,400 -1,650 Descending Miami Center
Sun 11:08:41 AM 27.2969 -82.0542 162° South 470 541 26,900 -1,500 Descending Miami Center
Sun 11:09:41 AM 27.1731 -82.0158 165° South 464 534 25,400 -1,450 Descending Miami Center
Sun 11:10:41 AM 27.0658 -81.9786 163° South 464 534 24,000 -700 Descending Miami Center
Sun 11:11:41 AM 26.9297 -81.9331 163° South 464 534 24,000 -950 Level Miami Center
Sun 11:12:41 AM 26.8303 -81.8472 142° Southeast 448 516 22,100 -2,150 Descending Miami Center
Sun 11:13:41 AM 26.7458 -81.7531 135° Southeast 443 510 19,700 -1,550 Descending Miami Center
Sun 11:14:41 AM 26.7244 -81.6450 102° East 397 457 19,000 -350 Descending Miami Center
Sun 11:15:41 AM 26.7408 -81.5225 81° East 375 432 19,000 -850 Level Miami Center
Sun 11:16:41 AM 26.7244 -81.3869 98° East 388 447 17,300 -1,950 Descending Miami Center
Sun 11:17:41 AM 26.7156 -81.2658 95° East 388 447 15,100 -1,700 Descending Miami Center
Sun 11:18:41 AM 26.7189 -81.1544 88° East 379 436 13,900 -1,050 Descending Miami Center
Sun 11:19:41 AM 26.7428 -81.0531 75° East 369 425 13,000 -1,400 Descending Miami Center
Sun 11:20:41 AM 26.7775 -80.9356 72° East 358 412 11,100 -1,500 Descending Miami Center
Sun 11:21:41 AM 26.7886 -80.8358 83° East 347 399 10,000 -550 Descending Miami Center
Sun 11:22:41 AM 26.7825 -80.7497 95° East 294 338 10,000 -1,050 Level Miami Center
Sun 11:23:41 AM 26.7661 -80.6606 102° East 288 331 7,900 -2,050 Descending Miami Center
Sun 11:24:41 AM 26.7494 -80.5786 103° East 281 323 5,900 -1,450 Descending Miami Center
Sun 11:25:41 AM 26.7261 -80.5128 112° Southeast 261 300 5,000 -1,600 Descending Miami Center
Sun 11:26:41 AM 26.6961 -80.4492 118° Southeast 227 261 2,700 -1,500 Descending Miami Center
Sun 11:27:41 AM 26.6892 -80.3956 98° East 197 227 2,000 -350 Descending Miami Center
Sun 11:28:41 AM 26.6908 -80.3258 88° East 192 221 2,000  Level Miami Center
Sun 11:29:41 AM 26.6881 -80.2700 93° East 197 227 2,000  Level Miami Center
Sun 11:31:00 AM 26.6127 -80.1540 42° Northeast  Level FlightAware Approximate

Login

Don't have an account? Register now (free) for customized features, flight alerts, and more!